Bookmark and Share
Track history (hours):
 

Donna York

More information available from US FCC via Universal Licensing System and Coast Guard Vessel Documentation Center.

Last reported at 2014-Mar-06 10:31 UTC. Time now 2014-Apr-19 17:07 UTC.
Position N 38°46' W 083°56'.
Warning: this ship's position is 44 days out of date.

Length 34 m.

Type: Towing. MMSI: 367402680.

NotesDate/timePositionNaut miles runAvg speedWind from/ knotsBaromVisibWave heightAir tempDewpointWater temp
2014-Mar-06 10:31N 38°46' W 083°56'6 3.1
2014-Mar-06 08:33N 38°46' W 084°03'3 3.4
2014-Mar-06 07:33N 38°47' W 084°08'2 2.2
2014-Mar-06 06:33N 38°48' W 084°10'0 0.0
2014-Mar-06 05:31N 38°48' W 084°10'0 0.2
2014-Mar-06 04:28N 38°48' W 084°11'0 0.4
2014-Mar-06 03:28N 38°48' W 084°11'1 1.2
2014-Mar-06 02:31N 38°48' W 084°13'0 0.4
2014-Mar-06 01:33N 38°48' W 084°13'3 2.9
2014-Mar-06 00:34N 38°51' W 084°14'3 2.8
2014-Mar-05 23:33N 38°54' W 084°15'3 2.8
2014-Mar-05 22:33N 38°56' W 084°17'3 2.8
2014-Mar-05 21:33N 38°59' W 084°18'3 2.7
2014-Mar-05 20:32N 39°01' W 084°19'5 2.5
2014-Mar-05 18:32N 39°03' W 084°25'3 2.6
2014-Mar-05 17:32N 39°06' W 084°26'2 2.2
2014-Mar-05 16:33N 39°07' W 084°28'2 2.3
2014-Mar-05 15:32N 39°06' W 084°30'1 1.3
2014-Mar-05 14:33N 39°06' W 084°32'1 0.7
2014-Mar-05 13:33N 39°06' W 084°33'2 2.3
2014-Mar-05 12:33N 39°05' W 084°35'3 2.7
2014-Mar-05 11:33N 39°05' W 084°39'3 2.9
2014-Mar-05 10:33N 39°07' W 084°42'3 2.8
2014-Mar-05 09:32N 39°09' W 084°44'  
2014-Feb-27 14:25N 39°06' W 084°49'5 5.7
2014-Feb-27 13:32N 39°07' W 084°42'7 7.0
2014-Feb-27 12:33N 39°06' W 084°33'2 1.5
2014-Feb-27 11:32N 39°05' W 084°31'4 4.4
2014-Feb-27 10:33N 39°04' W 084°26'7 7.0
2014-Feb-27 09:33N 39°00' W 084°18'8 7.6
2014-Feb-27 08:32N 38°53' W 084°14'  

Dump ship's entire track history

sailing weather and tide predictions

Donna York — WDE8199 — position and weather